createdAt,value
2019-06-07T00:02:16.358Z,14.30
2019-06-07T00:05:07.687Z,14.30
2019-06-07T00:07:42.267Z,14.30
2019-06-07T00:10:35.256Z,14.20
2019-06-07T00:12:52.799Z,14.30
2019-06-07T00:15:29.348Z,14.20
2019-06-07T00:18:03.827Z,14.20
2019-06-07T00:20:41.966Z,14.20
2019-06-07T00:23:20.737Z,14.20
2019-06-07T00:25:54.368Z,14.20
2019-06-07T00:28:31.148Z,14.20
2019-06-07T00:31:05.481Z,14.20
2019-06-07T00:33:39.874Z,14.10
2019-06-07T00:36:16.235Z,14.10
2019-06-07T00:38:50.050Z,14.20
2019-06-07T00:41:24.330Z,14.20
2019-06-07T00:44:08.405Z,14.20
2019-06-07T00:46:42.017Z,14.20
2019-06-07T00:49:32.333Z,14.20
2019-06-07T00:51:53.842Z,14.20
2019-06-07T00:54:28.429Z,14.20
2019-06-07T00:57:02.613Z,14.20
2019-06-07T00:59:43.646Z,14.20
2019-06-07T01:02:19.234Z,14.20
2019-06-07T01:04:55.062Z,14.10
2019-06-07T01:07:29.365Z,14.10
2019-06-07T01:10:06.105Z,14.10
2019-06-07T01:12:40.317Z,14.20
2019-06-07T01:15:29.689Z,14.20
2019-06-07T01:20:40.017Z,14.20
2019-06-07T01:26:10.033Z,14.30
2019-06-07T01:28:44.218Z,14.30
2019-06-07T01:31:24.404Z,14.30
2019-06-07T01:34:06.807Z,14.30
2019-06-07T01:36:46.685Z,14.30
2019-06-07T01:39:24.714Z,14.30
2019-06-07T01:41:58.639Z,14.30
2019-06-07T01:44:32.969Z,14.30
2019-06-07T01:47:07.543Z,14.30
2019-06-07T01:49:42.142Z,14.30
2019-06-07T01:52:17.026Z,14.20
2019-06-07T01:54:57.824Z,14.20
2019-06-07T01:57:38.435Z,14.20
2019-06-07T02:00:04.857Z,14.10
2019-06-07T02:02:39.466Z,14.10
2019-06-07T02:05:14.121Z,14.00
2019-06-07T02:07:48.364Z,14.00
2019-06-07T02:10:27.465Z,14.00
2019-06-07T02:12:58.689Z,14.00
2019-06-07T02:15:36.785Z,14.00
2019-06-07T02:18:09.018Z,14.00
2019-06-07T02:20:43.301Z,14.00
2019-06-07T02:23:17.682Z,14.00
2019-06-07T02:25:51.976Z,14.00
2019-06-07T02:28:36.187Z,13.90
2019-06-07T02:31:02.418Z,13.90
2019-06-07T02:33:40.118Z,13.90
2019-06-07T02:36:13.655Z,13.90
2019-06-07T02:38:48.026Z,13.90
2019-06-07T02:41:25.790Z,13.90
2019-06-07T02:43:58.378Z,14.00
2019-06-07T02:46:45.425Z,13.90
2019-06-07T02:49:08.685Z,14.00
2019-06-07T02:51:43.850Z,14.00
2019-06-07T02:54:18.118Z,14.00
2019-06-07T02:56:58.541Z,14.00
2019-06-07T03:00:01.351Z,14.00
2019-06-07T03:02:04.568Z,14.00
2019-06-07T03:04:44.055Z,14.00
2019-06-07T03:07:17.500Z,14.00
2019-06-07T03:09:52.207Z,14.00
2019-06-07T03:12:30.856Z,14.00
2019-06-07T03:15:05.085Z,14.00
2019-06-07T03:17:49.935Z,14.00
2019-06-07T03:20:27.405Z,14.00
2019-06-07T03:25:42.445Z,14.00
2019-06-07T03:28:17.081Z,14.00
2019-06-07T03:31:01.658Z,14.00
2019-06-07T03:33:29.230Z,14.10
2019-06-07T03:36:22.907Z,14.00
2019-06-07T03:38:39.959Z,14.00
2019-06-07T03:41:14.457Z,14.00
2019-06-07T03:43:48.741Z,14.00
2019-06-07T03:46:22.910Z,14.10
2019-06-07T03:48:57.257Z,14.00
2019-06-07T03:51:32.905Z,14.00
2019-06-07T03:54:07.497Z,14.00
2019-06-07T03:56:41.848Z,14.10
2019-06-07T03:59:16.192Z,14.10
2019-06-07T04:01:50.541Z,14.10
2019-06-07T04:04:24.748Z,14.10
2019-06-07T04:06:58.985Z,14.10
2019-06-07T04:09:37.466Z,14.10
2019-06-07T04:12:09.213Z,14.10
2019-06-07T04:14:43.505Z,14.10
2019-06-07T04:17:17.745Z,14.10
2019-06-07T04:19:52.112Z,14.10
2019-06-07T04:22:26.361Z,14.10
2019-06-07T04:25:02.912Z,14.10
2019-06-07T04:27:39.310Z,14.10
2019-06-07T04:30:13.469Z,14.10
2019-06-07T04:32:47.793Z,14.10
2019-06-07T04:35:22.565Z,14.20
2019-06-07T04:37:56.988Z,14.20
2019-06-07T04:40:33.813Z,14.30
2019-06-07T04:43:08.225Z,14.30
2019-06-07T04:45:50.901Z,14.40
2019-06-07T04:48:21.534Z,14.40
2019-06-07T04:50:56.684Z,14.40
2019-06-07T04:53:34.589Z,14.40
2019-06-07T04:56:06.866Z,14.40
2019-06-07T04:58:41.545Z,14.40
2019-06-07T05:01:26.936Z,14.40
2019-06-07T05:03:51.825Z,14.40
2019-06-07T05:06:26.012Z,14.40
2019-06-07T05:09:00.282Z,14.40
2019-06-07T05:11:36.496Z,14.40
2019-06-07T05:14:10.631Z,14.40
2019-06-07T05:16:44.809Z,14.40
2019-06-07T05:19:19.136Z,14.50
2019-06-07T05:22:04.158Z,14.50
2019-06-07T05:24:30.744Z,14.50
2019-06-07T05:27:05.926Z,14.60
2019-06-07T05:29:41.649Z,14.60
2019-06-07T05:32:16.336Z,14.60
2019-06-07T05:34:50.574Z,14.60
2019-06-07T05:37:24.840Z,14.70
2019-06-07T05:39:59.192Z,14.80
2019-06-07T05:45:38.489Z,15.00
2019-06-07T05:48:11.608Z,15.10
2019-06-07T05:50:55.966Z,15.20
2019-06-07T05:53:21.958Z,15.30
2019-06-07T05:55:56.240Z,15.40
2019-06-07T05:58:30.512Z,15.50
2019-06-07T06:01:41.729Z,15.50
2019-06-07T06:03:43.098Z,15.60
2019-06-07T06:06:16.774Z,15.60
2019-06-07T06:08:51.110Z,15.60
2019-06-07T06:11:43.409Z,15.80
2019-06-07T06:14:07.378Z,15.80
2019-06-07T06:16:39.545Z,15.90
2019-06-07T06:19:13.568Z,16.10
2019-06-07T06:21:48.700Z,16.20
2019-06-07T06:24:23.093Z,16.30
2019-06-07T06:27:15.293Z,16.30
2019-06-07T06:29:33.528Z,16.30
2019-06-07T06:32:41.259Z,16.20
2019-06-07T06:34:53.677Z,16.20
2019-06-07T06:37:25.937Z,16.20
2019-06-07T06:40:00.241Z,16.20
2019-06-07T06:42:34.556Z,16.30
2019-06-07T06:45:10.128Z,16.30
2019-06-07T06:47:48.191Z,16.40
2019-06-07T06:50:20.688Z,16.30
2019-06-07T06:52:55.123Z,16.30
2019-06-07T06:55:29.440Z,16.40
2019-06-07T06:58:03.724Z,16.30
2019-06-07T07:00:58.853Z,16.30
2019-06-07T07:03:57.619Z,16.30
2019-06-07T07:06:25.308Z,16.40
2019-06-07T07:08:44.260Z,16.30
2019-06-07T07:11:23.187Z,16.50
2019-06-07T07:13:57.037Z,16.60
2019-06-07T07:16:36.472Z,16.70
2019-06-07T07:19:10.752Z,16.70
2019-06-07T07:21:45.870Z,16.70
2019-06-07T07:24:22.374Z,16.70
2019-06-07T07:26:58.429Z,16.80
2019-06-07T07:29:34.844Z,17.00
2019-06-07T07:32:09.176Z,17.10
2019-06-07T07:34:46.003Z,17.20
2019-06-07T07:37:19.513Z,17.30
2019-06-07T07:40:01.382Z,17.40
2019-06-07T07:42:30.087Z,17.50
2019-06-07T07:45:07.576Z,17.70
2019-06-07T07:47:58.288Z,17.70
2019-06-07T07:50:17.823Z,17.50
2019-06-07T07:52:56.096Z,17.30
2019-06-07T07:55:28.089Z,17.00
2019-06-07T07:58:02.481Z,16.80
2019-06-07T08:00:52.493Z,16.80
2019-06-07T08:03:13.661Z,16.70
2019-06-07T08:05:49.125Z,16.80
2019-06-07T08:08:23.936Z,17.00
2019-06-07T08:11:01.342Z,17.00
2019-06-07T08:13:34.191Z,17.20
2019-06-07T08:16:14.799Z,17.20
2019-06-07T08:18:44.483Z,17.10
2019-06-07T08:21:25.334Z,17.20
2019-06-07T08:24:03.443Z,17.40
2019-06-07T08:26:34.063Z,17.50
2019-06-07T08:29:08.356Z,17.60
2019-06-07T08:31:42.827Z,17.80
2019-06-07T08:34:17.059Z,17.80
2019-06-07T08:36:52.271Z,18.00
2019-06-07T08:39:29.339Z,18.10
2019-06-07T08:42:15.357Z,18.30
2019-06-07T08:44:40.536Z,18.30
2019-06-07T08:47:20.483Z,18.20
2019-06-07T08:49:54.925Z,18.40
2019-06-07T08:52:26.784Z,18.60
2019-06-07T08:55:04.509Z,18.80
2019-06-07T08:57:54.510Z,18.80
2019-06-07T09:00:47.246Z,19.00
2019-06-07T09:03:07.189Z,19.10
2019-06-07T09:05:40.055Z,19.10
2019-06-07T09:08:29.448Z,19.20
2019-06-07T09:10:50.407Z,19.40
2019-06-07T09:13:24.714Z,19.50
2019-06-07T09:16:04.903Z,19.40
2019-06-07T09:18:42.970Z,19.40
2019-06-07T09:21:10.878Z,19.70
2019-06-07T09:23:45.088Z,19.90
2019-06-07T09:26:19.611Z,20.30
2019-06-07T09:28:57.648Z,20.90
2019-06-07T09:31:51.088Z,20.70
2019-06-07T09:34:13.788Z,20.20
2019-06-07T09:36:43.391Z,20.10
2019-06-07T09:39:17.730Z,20.00
2019-06-07T09:41:52.071Z,19.80
2019-06-07T09:44:26.856Z,19.80
2019-06-07T09:47:20.669Z,19.70
2019-06-07T09:49:37.083Z,19.70
2019-06-07T09:52:13.327Z,19.90
2019-06-07T09:55:12.080Z,20.30
2019-06-07T09:57:23.699Z,20.80
2019-06-07T09:59:59.433Z,21.10
2019-06-07T10:02:34.479Z,20.70
2019-06-07T10:05:14.118Z,20.60
2019-06-07T10:07:59.978Z,20.40
2019-06-07T10:12:56.599Z,20.20
2019-06-07T10:15:30.957Z,20.50
2019-06-07T10:18:05.284Z,20.40
2019-06-07T10:20:40.282Z,20.40
2019-06-07T10:23:14.557Z,20.60
2019-06-07T10:25:48.811Z,21.00
2019-06-07T10:28:23.154Z,21.30
2019-06-07T10:30:57.511Z,21.10
2019-06-07T10:33:31.739Z,21.10
2019-06-07T10:36:06.644Z,21.00
2019-06-07T10:38:40.967Z,20.90
2019-06-07T10:41:23.898Z,20.80
2019-06-07T10:43:58.235Z,20.60
2019-06-07T10:46:32.563Z,20.80
2019-06-07T10:49:07.979Z,20.80
2019-06-07T10:51:42.415Z,20.90
2019-06-07T10:54:26.706Z,21.00
2019-06-07T10:56:52.771Z,20.90
2019-06-07T10:59:27.915Z,20.80
2019-06-07T11:02:03.458Z,20.80
2019-06-07T11:04:38.021Z,20.60
2019-06-07T11:07:12.151Z,20.70
2019-06-07T11:09:46.431Z,20.80
2019-06-07T11:12:20.999Z,20.80
2019-06-07T11:14:55.336Z,21.20
2019-06-07T11:17:29.510Z,21.30
2019-06-07T11:20:09.901Z,21.50
2019-06-07T11:22:44.539Z,21.80
2019-06-07T11:25:19.005Z,22.10
2019-06-07T11:27:53.327Z,22.20
2019-06-07T11:30:27.622Z,21.90
2019-06-07T11:33:01.871Z,21.50
2019-06-07T11:35:36.493Z,21.10
2019-06-07T11:38:10.682Z,20.70
2019-06-07T11:40:45.009Z,20.70
2019-06-07T11:43:19.287Z,20.80
2019-06-07T11:45:53.650Z,20.90
2019-06-07T11:48:27.912Z,21.00
2019-06-07T11:51:02.230Z,21.10
2019-06-07T11:53:36.568Z,21.50
2019-06-07T11:56:11.940Z,21.80
2019-06-07T11:58:46.302Z,21.40
2019-06-07T12:01:20.624Z,21.40
2019-06-07T12:03:58.227Z,21.90
2019-06-07T12:06:32.847Z,21.40
2019-06-07T12:09:08.628Z,21.50
2019-06-07T12:11:43.349Z,21.60
2019-06-07T12:14:19.208Z,21.20
2019-06-07T12:16:53.742Z,21.60
2019-06-07T12:19:28.011Z,21.70
2019-06-07T12:22:02.273Z,21.20
2019-06-07T12:24:36.475Z,21.10
2019-06-07T12:27:10.646Z,21.30
2019-06-07T12:29:44.863Z,21.80
2019-06-07T12:32:19.596Z,22.00
2019-06-07T12:34:53.950Z,22.70
2019-06-07T12:37:42.507Z,22.50
2019-06-07T12:40:06.481Z,22.00
2019-06-07T12:45:36.629Z,20.50
2019-06-07T12:47:50.974Z,20.90
2019-06-07T12:50:41.620Z,21.50
2019-06-07T12:53:01.163Z,21.60
2019-06-07T12:55:35.415Z,21.60
2019-06-07T12:58:09.718Z,21.50
2019-06-07T13:00:44.005Z,21.70
2019-06-07T13:03:18.465Z,22.10
2019-06-07T13:05:52.807Z,22.20
2019-06-07T13:08:28.195Z,22.80
2019-06-07T13:11:14.896Z,22.60
2019-06-07T13:13:38.594Z,23.00
2019-06-07T13:16:13.045Z,23.10
2019-06-07T13:18:47.383Z,23.20
2019-06-07T13:21:22.361Z,22.90
2019-06-07T13:23:56.730Z,22.70
2019-06-07T13:26:31.006Z,22.10
2019-06-07T13:29:05.442Z,21.60
2019-06-07T13:31:39.746Z,21.20
2019-06-07T13:34:16.005Z,21.10
2019-06-07T13:36:50.411Z,21.10
2019-06-07T13:39:27.773Z,21.30
2019-06-07T13:42:00.708Z,21.40
2019-06-07T13:44:35.047Z,21.40
2019-06-07T13:47:09.414Z,21.30
2019-06-07T13:49:43.660Z,21.10
2019-06-07T13:52:18.044Z,21.00
2019-06-07T13:54:52.359Z,20.80
2019-06-07T13:57:29.610Z,20.80
2019-06-07T14:00:10.903Z,20.70
2019-06-07T14:02:45.663Z,20.50
2019-06-07T14:05:20.950Z,20.30
2019-06-07T14:07:55.474Z,20.10
2019-06-07T14:10:33.263Z,20.20
2019-06-07T14:13:08.790Z,20.40
2019-06-07T14:15:43.084Z,20.50
2019-06-07T14:18:17.338Z,20.60
2019-06-07T14:23:44.222Z,20.50
2019-06-07T14:26:00.994Z,20.10
2019-06-07T14:28:35.371Z,20.50
2019-06-07T14:31:12.426Z,20.50
2019-06-07T14:33:46.703Z,20.50
2019-06-07T14:36:20.944Z,20.70
2019-06-07T14:38:55.171Z,20.70
2019-06-07T14:41:29.642Z,20.70
2019-06-07T14:44:03.954Z,20.70
2019-06-07T14:46:45.430Z,20.60
2019-06-07T14:49:19.750Z,20.70
2019-06-07T14:51:54.023Z,20.80
2019-06-07T14:54:33.506Z,20.70
2019-06-07T14:57:04.287Z,20.70
2019-06-07T14:59:39.454Z,20.80
2019-06-07T15:02:13.828Z,20.80
2019-06-07T15:04:48.338Z,21.10
2019-06-07T15:07:22.638Z,21.10
2019-06-07T15:09:56.822Z,20.90
2019-06-07T15:12:31.216Z,21.10
2019-06-07T15:15:09.886Z,21.00
2019-06-07T15:17:44.086Z,20.80
2019-06-07T15:20:18.383Z,20.80
2019-06-07T15:22:52.563Z,20.50
2019-06-07T15:25:27.086Z,20.60
2019-06-07T15:28:01.566Z,20.60
2019-06-07T15:30:35.926Z,20.90
2019-06-07T15:33:10.092Z,20.90
2019-06-07T15:35:44.443Z,20.90
2019-06-07T15:38:18.622Z,20.80
2019-06-07T15:40:52.906Z,20.70
2019-06-07T15:43:27.218Z,20.60
2019-06-07T15:46:01.580Z,20.60
2019-06-07T15:48:36.128Z,20.50
2019-06-07T15:51:10.501Z,20.30
2019-06-07T15:53:45.008Z,20.30
2019-06-07T15:56:19.371Z,20.20
2019-06-07T15:58:53.994Z,20.10
2019-06-07T16:01:28.346Z,20.20
2019-06-07T16:04:02.933Z,20.20
2019-06-07T16:06:38.305Z,20.40
2019-06-07T16:09:12.726Z,20.40
2019-06-07T16:11:47.011Z,20.40
2019-06-07T16:14:21.302Z,20.60
2019-06-07T16:16:55.534Z,20.70
2019-06-07T16:19:29.890Z,20.70
2019-06-07T16:22:07.736Z,20.60
2019-06-07T16:24:42.274Z,20.50
2019-06-07T16:27:16.622Z,20.40
2019-06-07T16:29:50.938Z,20.50
2019-06-07T16:32:25.294Z,20.50
2019-06-07T16:34:59.514Z,20.40
2019-06-07T16:37:33.838Z,20.40
2019-06-07T16:40:09.798Z,20.40
2019-06-07T16:42:45.090Z,20.30
2019-06-07T16:45:20.283Z,20.10
2019-06-07T16:51:02.974Z,19.90
2019-06-07T16:53:38.184Z,19.80
2019-06-07T16:56:12.626Z,19.90
2019-06-07T16:58:48.559Z,20.00
2019-06-07T17:01:22.958Z,20.10
2019-06-07T17:03:57.322Z,20.00
2019-06-07T17:06:31.626Z,20.00
2019-06-07T17:09:07.699Z,20.00
2019-06-07T17:11:42.331Z,20.00
2019-06-07T17:14:16.789Z,19.90
2019-06-07T17:16:51.042Z,20.00
2019-06-07T17:19:25.363Z,20.10
2019-06-07T17:21:59.694Z,20.10
2019-06-07T17:24:34.005Z,20.20
2019-06-07T17:27:08.278Z,20.30
2019-06-07T17:29:43.666Z,20.60
2019-06-07T17:32:18.090Z,20.80
2019-06-07T17:34:52.442Z,20.90
2019-06-07T17:37:27.226Z,20.90
2019-06-07T17:40:01.507Z,21.00
2019-06-07T17:42:35.953Z,21.00
2019-06-07T17:45:11.241Z,21.10
2019-06-07T17:47:45.991Z,21.10
2019-06-07T17:50:20.562Z,21.10
2019-06-07T17:52:54.826Z,21.10
2019-06-07T17:55:29.486Z,21.10
2019-06-07T17:58:03.773Z,21.10
2019-06-07T18:00:53.300Z,21.10
2019-06-07T18:03:27.681Z,21.10
2019-06-07T18:06:03.489Z,21.20
2019-06-07T18:08:37.893Z,21.10
2019-06-07T18:11:12.213Z,21.10
2019-06-07T18:13:46.563Z,21.10
2019-06-07T18:16:20.854Z,21.10
2019-06-07T18:18:55.121Z,21.10
2019-06-07T18:21:29.434Z,21.10
2019-06-07T18:24:03.725Z,21.10
2019-06-07T18:26:37.973Z,21.00
2019-06-07T18:29:12.326Z,21.00
2019-06-07T18:31:46.765Z,21.00
2019-06-07T18:34:21.057Z,20.90
2019-06-07T18:36:55.781Z,20.90
2019-06-07T18:39:30.032Z,20.80
2019-06-07T18:42:04.377Z,20.80
2019-06-07T18:44:38.601Z,20.80
2019-06-07T18:47:12.781Z,20.80
2019-06-07T18:49:47.485Z,20.70
2019-06-07T18:52:23.527Z,20.70
2019-06-07T18:54:59.572Z,20.60
2019-06-07T18:57:33.729Z,20.60
2019-06-07T19:00:11.222Z,20.50
2019-06-07T19:02:45.842Z,20.40
2019-06-07T19:05:20.394Z,20.30
2019-06-07T19:07:54.998Z,20.10
2019-06-07T19:10:29.365Z,20.00
2019-06-07T19:13:03.693Z,19.90
2019-06-07T19:15:38.068Z,19.80
2019-06-07T19:18:12.372Z,19.80
2019-06-07T19:20:46.697Z,19.70
2019-06-07T19:23:21.043Z,19.50
2019-06-07T19:26:03.597Z,19.40
2019-06-07T19:28:37.857Z,19.40
2019-06-07T19:31:12.209Z,19.40
2019-06-07T19:33:49.374Z,19.20
2019-06-07T19:36:22.556Z,19.10
2019-06-07T19:38:57.851Z,19.00
2019-06-07T19:41:32.365Z,18.80
2019-06-07T19:44:06.653Z,18.70
2019-06-07T19:46:40.933Z,18.50
2019-06-07T19:49:15.221Z,18.40
2019-06-07T19:51:49.419Z,18.30
2019-06-07T19:54:24.209Z,18.20
2019-06-07T19:59:55.442Z,18.20
2019-06-07T20:02:29.905Z,18.20
2019-06-07T20:05:08.897Z,18.20
2019-06-07T20:07:43.217Z,18.10
2019-06-07T20:10:17.985Z,18.20
2019-06-07T20:12:54.515Z,18.10
2019-06-07T20:15:29.771Z,18.10
2019-06-07T20:18:05.583Z,18.10
2019-06-07T20:20:40.169Z,18.00
2019-06-07T20:23:21.542Z,18.00
2019-06-07T20:25:55.953Z,18.00
2019-06-07T20:28:30.263Z,18.00
2019-06-07T20:31:06.088Z,18.00
2019-06-07T20:33:40.573Z,18.20
2019-06-07T20:36:14.949Z,18.20
2019-06-07T20:38:49.205Z,18.20
2019-06-07T20:41:23.505Z,18.30
2019-06-07T20:43:58.033Z,18.30
2019-06-07T20:46:32.338Z,18.30
2019-06-07T20:49:06.634Z,18.30
2019-06-07T20:51:41.016Z,18.30
2019-06-07T20:54:15.300Z,18.30
2019-06-07T20:56:49.653Z,18.20
2019-06-07T20:59:24.025Z,18.10
2019-06-07T21:01:58.730Z,18.00
2019-06-07T21:04:33.141Z,17.90
2019-06-07T21:07:08.120Z,17.80
2019-06-07T21:09:43.073Z,17.60
2019-06-07T21:12:17.701Z,17.50
2019-06-07T21:14:52.049Z,17.50
2019-06-07T21:17:26.406Z,17.40
2019-06-07T21:20:00.636Z,17.30
2019-06-07T21:22:34.972Z,17.30
2019-06-07T21:25:11.513Z,17.20
2019-06-07T21:27:45.865Z,17.20
2019-06-07T21:30:19.449Z,17.10
2019-06-07T21:32:53.761Z,17.00
2019-06-07T21:35:28.125Z,17.00
2019-06-07T21:38:05.980Z,17.00
2019-06-07T21:40:40.421Z,17.00
2019-06-07T21:43:14.619Z,16.90
2019-06-07T21:46:01.554Z,16.90
2019-06-07T21:48:24.889Z,16.90
2019-06-07T21:50:59.173Z,16.90
2019-06-07T21:53:33.437Z,16.90
2019-06-07T21:56:07.110Z,16.90
2019-06-07T21:58:41.353Z,16.80
2019-06-07T22:01:19.029Z,16.90
2019-06-07T22:03:55.146Z,16.90
2019-06-07T22:06:29.494Z,16.80
2019-06-07T22:12:12.112Z,16.90
2019-06-07T22:14:49.565Z,16.80
2019-06-07T22:17:23.789Z,16.80
2019-06-07T22:19:58.116Z,16.70
2019-06-07T22:22:32.316Z,16.70
2019-06-07T22:25:09.013Z,16.70
2019-06-07T22:27:43.657Z,16.60
2019-06-07T22:30:18.765Z,16.60
2019-06-07T22:32:53.317Z,16.60
2019-06-07T22:35:27.472Z,16.60
2019-06-07T22:38:01.640Z,16.50
2019-06-07T22:40:35.926Z,16.50
2019-06-07T22:43:10.271Z,16.50
2019-06-07T22:45:44.604Z,16.50
2019-06-07T22:48:19.085Z,16.40
2019-06-07T22:50:53.369Z,16.40
2019-06-07T22:53:27.608Z,16.40
2019-06-07T22:56:03.607Z,16.40
2019-06-07T22:58:38.221Z,16.40
2019-06-07T23:01:24.365Z,16.30
2019-06-07T23:03:58.624Z,16.30
2019-06-07T23:06:32.893Z,16.30
2019-06-07T23:09:08.757Z,16.30
2019-06-07T23:11:43.181Z,16.30
2019-06-07T23:14:17.526Z,16.40
2019-06-07T23:16:55.899Z,16.30
2019-06-07T23:19:27.856Z,16.40
2019-06-07T23:22:02.205Z,16.40
2019-06-07T23:24:36.516Z,16.40
2019-06-07T23:27:11.467Z,16.40
2019-06-07T23:29:47.565Z,16.30
2019-06-07T23:32:21.898Z,16.30
2019-06-07T23:34:56.117Z,16.20
2019-06-07T23:37:30.465Z,16.20
2019-06-07T23:40:07.077Z,16.10
2019-06-07T23:42:41.304Z,16.20
2019-06-07T23:45:15.630Z,16.20
2019-06-07T23:47:49.861Z,16.30
2019-06-07T23:50:24.126Z,16.40
2019-06-07T23:52:58.517Z,16.40
2019-06-07T23:55:32.704Z,16.40
2019-06-07T23:58:06.926Z,16.40
